Time;durP1;ratioP1;P1;durP2;ratioP2;P2;SDS_P1;SDS_P2;PMS_P1;PMS_P2;Temp;Humidity;BMP_temperature;BMP_pressure;BME280_temperature;BME280_humidity;BME280_pressure;Samples;Min_cycle;Max_cycle;Signal;HPM_P1;HPM_P2
2022/12/07 13:52:25;;;;;;;5.60;2.50;;;;;;;19.81;37.54;101637.66;5119318;27;20417;-46
2022/12/07 13:54:58;;;;;;;6.45;2.85;;;;;;;20.86;35.51;101624.31;5109544;28;20454;-45
2022/12/07 13:57:27;;;;;;;7.05;3.80;;;;;;;21.65;33.93;101621.88;5109945;28;20110;-45
2022/12/07 13:59:55;;;;;;;11.95;3.35;;;;;;;22.13;33.15;101619.06;5109488;28;20028;-46
2022/12/07 14:02:33;;;;;;;5.85;2.55;;;;;;;22.51;32.60;101615.88;5099712;28;20082;-47
2022/12/07 14:05:25;;;;;;;6.85;2.08;;;;;;;22.81;31.70;101615.00;5101657;28;20061;-50
2022/12/07 14:07:56;;;;;;;3.65;2.03;;;;;;;23.02;31.42;101613.78;5092648;28;20036;-49
2022/12/07 14:10:30;;;;;;;4.95;3.20;;;;;;;23.14;31.12;101603.69;5108951;28;20051;-48
2022/12/07 14:12:58;;;;;;;5.25;3.00;;;;;;;23.24;31.16;101601.34;5102907;28;20115;-46
2022/12/07 14:15:30;;;;;;;5.32;3.35;;;;;;;23.34;30.84;101603.31;5108887;28;20055;-47
2022/12/07 14:18:03;;;;;;;3.55;2.47;;;;;;;23.43;30.65;101595.72;5103251;28;20077;-46
2022/12/07 14:20:32;;;;;;;3.33;2.42;;;;;;;23.47;30.53;101594.97;5109092;28;20040;-45
2022/12/07 14:23:08;;;;;;;4.55;2.97;;;;;;;23.52;30.70;101580.22;5105536;28;20031;-48
2022/12/07 14:25:47;;;;;;;3.00;2.30;;;;;;;23.55;30.53;101574.19;5105672;28;20024;-45
2022/12/07 14:28:36;;;;;;;4.25;2.58;;;;;;;23.59;30.40;101573.41;5106548;28;20077;-48
2022/12/07 14:31:05;;;;;;;4.88;2.28;;;;;;;23.64;30.32;101569.16;5106327;28;20036;-47
2022/12/07 14:33:33;;;;;;;3.92;2.30;;;;;;;23.69;30.53;101565.78;5103254;28;20085;-49
2022/12/07 14:36:01;;;;;;;11.32;1.92;;;;;;;23.70;30.17;101562.31;5109642;28;20085;-47
2022/12/07 14:38:29;;;;;;;3.33;2.00;;;;;;;23.75;29.98;101565.91;5109381;28;20027;-46
2022/12/07 14:41:50;;;;;;;6.45;2.35;;;;;;;23.75;30.09;101564.19;5109431;28;20024;-48
2022/12/07 14:43:46;;;;;;;8.55;2.05;;;;;;;23.80;30.18;101564.28;5109198;28;20059;-46
2022/12/07 14:46:14;;;;;;;3.53;1.98;;;;;;;23.83;29.96;101556.50;5108302;28;20028;-46
2022/12/07 14:48:43;;;;;;;4.85;1.60;;;;;;;23.80;29.78;101543.34;5109854;28;20024;-45
2022/12/07 14:51:14;;;;;;;3.85;1.85;;;;;;;23.84;29.82;101555.66;5108933;28;20048;-45
2022/12/07 14:53:45;;;;;;;4.10;1.88;;;;;;;23.83;29.92;101553.88;5109480;28;20106;-46
2022/12/07 14:56:14;;;;;;;5.45;1.65;;;;;;;23.82;29.85;101547.78;5109909;28;20077;-45
2022/12/07 14:58:42;;;;;;;4.68;1.70;;;;;;;23.85;29.93;101546.06;5109300;28;20020;-45
2022/12/07 15:01:11;;;;;;;2.10;1.33;;;;;;;23.85;29.63;101546.06;5109239;28;20024;-47
2022/12/07 15:03:40;;;;;;;3.92;1.63;;;;;;;23.86;29.55;101545.19;5095168;28;20024;-46
2022/12/07 15:06:08;;;;;;;3.20;1.55;;;;;;;23.88;30.00;101541.78;5096219;28;20030;-47
2022/12/07 15:08:36;;;;;;;2.88;1.65;;;;;;;23.92;29.43;101538.38;5095709;28;20020;-47
2022/12/07 15:11:05;;;;;;;4.28;1.50;;;;;;;23.96;29.44;101534.09;5095557;28;20031;-45
2022/12/07 15:14:13;;;;;;;3.70;1.30;;;;;;;23.95;29.46;101537.56;5095240;28;20024;-46
2022/12/07 15:16:21;;;;;;;3.05;1.40;;;;;;;23.92;29.43;101537.50;5095593;28;20101;-47
2022/12/07 15:18:50;;;;;;;2.50;1.20;;;;;;;23.96;29.47;101536.72;5095372;28;20028;-47
2022/12/07 15:21:18;;;;;;;3.97;1.40;;;;;;;23.93;29.37;101534.03;5095444;28;20028;-46
2022/12/07 15:23:48;;;;;;;1.73;1.20;;;;;;;23.94;29.30;101538.41;5095121;28;20043;-46
2022/12/07 15:26:17;;;;;;;1.52;1.10;;;;;;;24.00;29.32;101535.94;5095683;28;20074;-47
2022/12/07 15:28:45;;;;;;;18.33;11.25;;;;;;;23.96;29.42;101536.72;5095498;28;20024;-46
2022/12/07 15:31:16;;;;;;;27.70;18.58;;;;;;;23.88;29.26;101536.53;5095069;28;20031;-49
2022/12/07 15:33:44;;;;;;;25.33;17.58;;;;;;;23.91;29.59;101535.72;5093820;28;20028;-46
2022/12/07 15:36:24;;;;;;;37.58;17.60;;;;;;;23.88;29.67;101533.94;5095536;28;20028;-47
2022/12/07 15:38:53;;;;;;;24.05;15.25;;;;;;;23.88;29.68;101533.03;5095603;28;20032;-46
2022/12/07 15:41:22;;;;;;;22.60;14.95;;;;;;;23.90;29.60;101528.72;5094793;28;20532;-46
2022/12/07 15:46:40;;;;;;;19.88;13.18;;;;;;;23.85;29.28;101512.88;5087366;28;20036;-47
2022/12/07 15:49:12;;;;;;;20.63;12.80;;;;;;;23.94;29.00;101536.66;5095112;28;20035;-47
2022/12/07 15:51:41;;;;;;;20.48;13.07;;;;;;;23.87;29.43;101521.69;5092812;28;20059;-48
2022/12/07 15:54:12;;;;;;;19.00;11.88;;;;;;;23.92;29.22;101527.00;5085852;28;20055;-47
2022/12/07 15:56:40;;;;;;;20.38;11.35;;;;;;;23.90;29.33;101520.84;5056886;28;20401;-47
2022/12/07 15:59:07;;;;;;;21.38;10.38;;;;;;;23.97;29.23;101531.53;5074363;28;20024;-47
2022/12/07 16:01:35;;;;;;;17.77;10.05;;;;;;;23.95;29.31;101527.94;5074245;28;20035;-46
2022/12/07 16:04:03;;;;;;;15.07;9.88;;;;;;;23.93;29.24;101526.16;5073867;28;20377;-45
2022/12/07 16:06:31;;;;;;;13.68;8.93;;;;;;;23.92;29.01;101519.16;5074341;28;20025;-48
2022/12/07 16:09:00;;;;;;;15.02;9.20;;;;;;;23.95;29.21;101520.09;5074578;28;20033;-47
2022/12/07 16:11:28;;;;;;;13.32;8.82;;;;;;;23.95;29.18;101521.84;5074013;28;20036;-47
2022/12/07 16:13:57;;;;;;;12.07;8.35;;;;;;;23.96;29.39;101527.13;5072415;28;20059;-48
2022/12/07 16:16:25;;;;;;;16.02;10.20;;;;;;;23.96;29.04;101523.63;5074308;28;20115;-46
2022/12/07 16:18:54;;;;;;;15.85;8.82;;;;;;;23.95;29.15;101527.94;5072764;28;20535;-48
2022/12/07 16:21:21;;;;;;;12.05;8.57;;;;;;;23.94;29.27;101527.94;5074233;28;20481;-47
2022/12/07 16:23:50;;;;;;;15.18;8.75;;;;;;;23.88;29.29;101520.81;5072817;28;20074;-45
2022/12/07 16:26:20;;;;;;;12.73;8.38;;;;;;;23.82;29.03;101513.72;5074212;28;20031;-46
2022/12/07 16:28:50;;;;;;;14.25;7.90;;;;;;;23.91;29.14;101515.63;5074006;28;20028;-46
2022/12/07 16:31:22;;;;;;;10.63;6.90;;;;;;;23.91;28.52;101506.91;5073824;28;20036;-46
2022/12/07 16:33:51;;;;;;;15.02;7.82;;;;;;;23.94;28.72;101510.47;5072017;28;20351;-47
2022/12/07 16:36:21;;;;;;;9.98;6.60;;;;;;;23.93;28.98;101513.94;5075870;28;20032;-48
2022/12/07 16:38:49;;;;;;;11.35;6.90;;;;;;;23.99;28.96;101518.47;5089716;28;20067;-46
2022/12/07 16:41:18;;;;;;;13.63;8.23;;;;;;;23.92;28.67;101514.78;5088848;28;20023;-46
2022/12/07 16:43:47;;;;;;;11.80;7.60;;;;;;;23.95;29.05;101517.47;5087498;28;20115;-46
2022/12/07 16:46:15;;;;;;;14.32;8.88;;;;;;;23.94;29.13;101515.69;5093191;28;20016;-48
2022/12/07 16:48:42;;;;;;;10.60;7.25;;;;;;;23.94;29.03;101512.22;5086025;28;20037;-47
2022/12/07 16:51:12;;;;;;;11.18;7.68;;;;;;;23.89;28.79;101505.97;5084307;28;20056;-47
2022/12/07 16:53:41;;;;;;;12.27;8.18;;;;;;;23.97;29.10;101509.69;5071278;28;20032;-49
2022/12/07 16:56:14;;;;;;;11.35;7.00;;;;;;;23.96;28.74;101513.13;5071883;28;20048;-45
2022/12/07 16:58:42;;;;;;;9.10;6.00;;;;;;;23.92;28.74;101506.06;5073185;28;20020;-46
2022/12/07 17:01:17;;;;;;;9.57;6.10;;;;;;;23.93;29.08;101513.06;5078563;28;20020;-47
2022/12/07 17:03:45;;;;;;;9.43;6.13;;;;;;;23.92;29.11;101499.06;5070915;28;20025;-46
2022/12/07 17:06:18;;;;;;;7.97;5.50;;;;;;;23.97;29.15;101502.69;5074284;28;20029;-48
2022/12/07 17:08:45;;;;;;;8.13;5.68;;;;;;;24.02;28.97;101502.78;5077893;28;20052;-49
2022/12/07 17:11:16;;;;;;;8.60;4.90;;;;;;;24.03;28.83;101488.84;5077561;28;20024;-49
2022/12/07 17:16:30;;;;;;;9.85;5.32;;;;;;;24.02;28.74;101501.94;5077040;28;20375;-48
2022/12/07 17:18:58;;;;;;;5.80;4.00;;;;;;;23.96;28.94;101492.16;5077815;28;20029;-49
2022/12/07 17:21:25;;;;;;;7.03;4.00;;;;;;;24.03;28.53;101504.56;5076900;28;20024;-50
2022/12/07 17:23:52;;;;;;;6.90;4.32;;;;;;;24.03;29.02;101501.94;5077290;28;20032;-48
2022/12/07 17:26:25;;;;;;;7.05;4.00;;;;;;;24.02;28.92;101501.94;5076247;28;20025;-48
2022/12/07 17:28:53;;;;;;;5.60;3.88;;;;;;;24.02;28.98;101500.19;5073575;28;20039;-49
2022/12/07 17:31:22;;;;;;;11.35;3.80;;;;;;;24.03;28.76;101503.69;5082944;28;20028;-47
2022/12/07 17:33:51;;;;;;;5.55;3.72;;;;;;;24.12;28.68;101494.28;5085042;28;20036;-48
2022/12/07 17:36:21;;;;;;;8.93;3.83;;;;;;;24.11;28.33;101503.00;5078525;28;20031;-48
2022/12/07 17:38:49;;;;;;;5.05;3.47;;;;;;;24.09;28.51;101502.09;5080727;28;20039;-49
2022/12/07 17:44:09;;;;;;;4.82;3.33;;;;;;;24.06;28.69;101490.66;5076283;28;20068;-47
2022/12/07 17:46:37;;;;;;;4.55;2.80;;;;;;;24.18;28.86;101490.00;5076857;28;20370;-47
2022/12/07 17:49:07;;;;;;;4.57;3.00;;;;;;;24.08;28.65;101487.22;5073403;28;20396;-47
2022/12/07 17:54:21;;;;;;;4.47;2.97;;;;;;;24.10;28.46;101485.50;5068153;28;20044;-48
2022/12/07 17:56:49;;;;;;;3.78;2.80;;;;;;;24.11;28.80;101484.66;5072379;28;20469;-46
2022/12/07 17:59:17;;;;;;;5.53;2.92;;;;;;;24.08;28.96;101486.31;5080075;28;20447;-47
2022/12/07 18:01:45;;;;;;;5.07;3.10;;;;;;;24.10;28.54;101485.50;5083302;28;20025;-46
2022/12/07 18:04:13;;;;;;;4.25;2.70;;;;;;;24.09;28.93;101486.34;5080044;28;20112;-47
2022/12/07 18:06:42;;;;;;;4.50;2.55;;;;;;;24.12;28.45;101490.78;5077017;28;20076;-47
2022/12/07 18:09:11;;;;;;;7.03;2.42;;;;;;;24.11;28.64;101486.38;5079398;28;20028;-47
2022/12/07 18:11:39;;;;;;;3.15;2.33;;;;;;;24.11;28.72;101489.91;5078960;28;20120;-46
2022/12/07 18:14:07;;;;;;;3.42;2.20;;;;;;;24.11;28.63;101486.38;5075833;28;20017;-47
2022/12/07 18:16:34;;;;;;;5.75;2.38;;;;;;;24.09;28.48;101483.75;5078519;28;20035;-46
2022/12/07 18:19:04;;;;;;;3.58;1.95;;;;;;;24.11;28.96;101483.75;5082928;28;20077;-46
2022/12/07 18:21:32;;;;;;;3.35;2.05;;;;;;;24.18;28.62;101482.16;5083002;28;20036;-51
2022/12/07 18:24:03;;;;;;;3.30;2.10;;;;;;;24.18;28.50;101482.16;5080528;28;20024;-47
2022/12/07 18:26:34;;;;;;;5.82;2.25;;;;;;;24.12;28.33;101485.53;5084017;28;20037;-47
2022/12/07 18:29:04;;;;;;;4.30;2.05;;;;;;;24.18;28.26;101479.53;5081924;28;20475;-47
2022/12/07 18:31:32;;;;;;;5.25;2.20;;;;;;;24.15;28.13;101479.47;5081094;28;20044;-47
2022/12/07 18:34:03;;;;;;;4.38;2.00;;;;;;;24.15;28.62;101487.34;5083178;28;20024;-47
2022/12/07 18:36:31;;;;;;;7.03;1.75;;;;;;;24.17;28.56;101477.75;5080440;28;20039;-48
2022/12/07 18:38:59;;;;;;;3.00;2.03;;;;;;;24.19;28.30;101478.66;5086294;28;20032;-47
2022/12/07 18:41:27;;;;;;;4.10;2.25;;;;;;;24.15;28.41;101476.88;5087170;28;20496;-47
2022/12/07 18:43:55;;;;;;;11.98;3.90;;;;;;;24.16;28.45;101479.50;5087178;28;20040;-47
2022/12/07 18:46:22;;;;;;;20.05;7.55;;;;;;;24.14;28.22;101481.22;5086532;28;20067;-48
2022/12/07 18:48:50;;;;;;;74.18;28.30;;;;;;;24.12;28.31;101482.91;5083442;28;20020;-47
2022/12/07 18:51:19;;;;;;;107.03;40.58;;;;;;;24.12;28.38;101481.19;5086827;28;20391;-48
2022/12/07 18:53:48;;;;;;;137.13;60.40;;;;;;;24.11;28.38;101468.94;5090111;28;20040;-46
2022/12/07 18:56:19;;;;;;;204.27;85.22;;;;;;;24.12;28.43;101472.41;5082672;28;20021;-48
2022/12/07 19:01:47;;;;;;;243.43;109.25;;;;;;;24.08;29.08;101474.09;5079565;28;20052;-47
2022/12/07 19:04:14;;;;;;;260.63;117.53;;;;;;;24.11;28.87;101476.78;5081930;28;20035;-48
2022/12/07 19:06:43;;;;;;;266.92;121.60;;;;;;;24.11;28.64;101471.56;5081204;28;20099;-48
2022/12/07 19:09:12;;;;;;;255.40;122.25;;;;;;;24.13;29.13;101471.56;5083681;28;20470;-46
2022/12/07 19:11:50;;;;;;;248.25;120.22;;;;;;;24.14;29.03;101469.84;5080235;28;20370;-47
2022/12/07 19:14:29;;;;;;;251.55;120.88;;;;;;;24.12;28.99;101464.56;5083101;28;20027;-47
2022/12/07 19:17:01;;;;;;;253.80;120.78;;;;;;;24.17;28.55;101472.50;5082260;28;20024;-47
2022/12/07 19:19:35;;;;;;;230.20;115.20;;;;;;;24.17;28.78;101462.03;5085007;28;20029;-47
2022/12/07 19:22:03;;;;;;;247.55;115.47;;;;;;;24.12;28.61;101462.84;5081625;28;20084;-46
2022/12/07 19:24:31;;;;;;;220.82;112.15;;;;;;;24.12;28.52;101456.69;5085255;28;20532;-48
2022/12/07 19:26:59;;;;;;;218.70;107.93;;;;;;;24.15;28.53;101456.75;5085544;28;20036;-46
2022/12/07 19:29:30;;;;;;;214.60;100.18;;;;;;;24.09;28.94;101456.63;5088615;28;20473;-47
2022/12/07 19:31:59;;;;;;;191.70;97.28;;;;;;;24.05;28.79;101458.31;5084794;28;20071;-47
2022/12/07 19:34:26;;;;;;;191.50;94.80;;;;;;;24.04;29.16;101448.69;5083528;28;20128;-47
2022/12/07 19:36:54;;;;;;;182.32;90.32;;;;;;;24.01;29.02;101443.38;5083676;28;20012;-48
2022/12/07 19:39:21;;;;;;;180.13;86.20;;;;;;;24.06;28.90;101444.34;5083664;28;20035;-47
2022/12/07 19:41:49;;;;;;;158.50;79.13;;;;;;;24.06;28.90;101438.25;5077490;28;20025;-48
2022/12/07 19:44:19;;;;;;;153.27;79.15;;;;;;;23.99;28.78;101432.00;5084106;28;20032;-48
2022/12/07 19:46:49;;;;;;;148.35;74.72;;;;;;;24.06;28.70;101438.25;5082278;28;20020;-48
2022/12/07 19:49:19;;;;;;;135.52;70.68;;;;;;;24.10;28.72;101429.56;5083088;28;20024;-47
2022/12/07 19:51:49;;;;;;;132.98;64.07;;;;;;;24.11;29.03;101433.97;5078866;28;21237;-46
2022/12/07 19:54:19;;;;;;;127.07;62.50;;;;;;;24.03;28.85;101425.94;5082549;28;20465;-51
2022/12/07 19:56:49;;;;;;;115.05;55.90;;;;;;;24.05;29.18;101426.84;5079560;28;20352;-47
2022/12/07 19:59:18;;;;;;;121.35;57.78;;;;;;;24.04;29.11;101437.31;5082067;28;20032;-47
2022/12/07 20:01:45;;;;;;;107.03;52.92;;;;;;;24.08;28.90;101437.41;5080769;28;20090;-49
2022/12/07 20:04:15;;;;;;;107.45;50.10;;;;;;;24.06;28.75;101439.13;5079573;28;20059;-47
2022/12/07 20:06:44;;;;;;;99.25;47.95;;;;;;;24.15;28.94;101446.28;5078429;28;20056;-49
2022/12/07 20:09:12;;;;;;;95.75;45.67;;;;;;;24.12;28.75;101443.59;5080327;28;20080;-46
2022/12/07 20:14:26;;;;;;;77.15;40.08;;;;;;;24.01;29.09;101438.13;5079176;28;20036;-48
2022/12/07 20:16:53;;;;;;;73.78;36.97;;;;;;;23.99;29.21;101436.34;5074311;28;20024;-47
2022/12/07 20:19:21;;;;;;;72.60;35.00;;;;;;;24.05;28.58;101437.34;5082226;28;20021;-46
2022/12/07 20:21:50;;;;;;;64.30;32.70;;;;;;;24.09;28.53;101436.56;5081034;28;20477;-47
2022/12/07 20:24:21;;;;;;;73.55;33.00;;;;;;;24.07;28.34;101443.50;5076008;28;20028;-46
2022/12/07 20:26:50;;;;;;;66.03;30.40;;;;;;;24.00;28.70;101440.72;5077840;28;20025;-47
2022/12/07 20:29:20;;;;;;;54.10;27.88;;;;;;;23.94;29.10;101430.97;5081312;28;20032;-48
2022/12/07 20:31:48;;;;;;;60.25;30.10;;;;;;;24.02;28.48;101439.03;5079991;28;20469;-47
2022/12/07 20:34:15;;;;;;;54.72;27.52;;;;;;;23.93;28.83;101427.47;5074019;28;20119;-47
2022/12/07 20:36:44;;;;;;;52.13;26.92;;;;;;;23.92;28.47;101423.06;5080422;28;20021;-46
2022/12/07 20:39:13;;;;;;;51.50;25.05;;;;;;;23.94;28.63;101426.59;5080205;28;20028;-46
2022/12/07 20:44:27;;;;;;;38.58;19.92;;;;;;;23.92;28.48;101427.44;5067342;28;20044;-47
